Forside
METAR-TAF:

METAR-TAF

Lufthavne :

Slesvig-Jagel, Tyskland

Breddekreds: 54-28N, længdekreds: 009-31E, højde: 22 m

Aktuelle vejr

Denne rapport blev lavet for 1 time og 9 minutter siden, kl. 01:20 UTC
Vind 4 kt fra vestsydvest
Temperatur 12°C
Fugtighed 88%
Tryk 1012 hPa
Sigt: 6000 m

METAR: ETNS 220120Z AUTO 25004KT 6000 // ////// 12/10 Q1012 ///

Tid: 04:29 (02:29 UTC)

Vejrudsigter

Denne rapport blev lavet for 13 timer og 24 minutter siden, kl. 13:05 UTC
Foreløbig gælder fra 21 på 14 UTC til 21 på 23 UTC
Vind 8 kt fra nord
Sigt: 8000 m
Brudte skyer i en højde af 2000 ft
let regn
Midlertidig
fra 21 på 14 UTC til 21 på 20 UTC
Vind 10 kt fra nordnordøst med vindstød på up til 20 kt
Sigt: 3500 m
Brudte skyer i en højde af 600 ft
regn

TAF: ETNS 211305Z 2114/2123 01008KT 8000 -RA BKN020 TEMPO 2114/2120 02010G20KT 3500 RA BKN006 BY ETGL

Vejrobservationer og prognoser fra mere end 4000 lufthavne (METAR og TAF).

De gule og røde prikker repræsenterer de meteorologiske stationer.

Flyt musen over at se navnet på stationen.

Så klik over at se vejr observationer og prognoser.

At skifte det kort: Klik på de grønne knapper med et sort kors for at zoome ind; på den grønne knap med en bindestreg for at zoome ud; eller på de grønne pile for tilstødende kort.


METAR-TAF: